sensor_id;sensor_type;location;lat;lon;timestamp;pressure;altitude;pressure_sealevel;temperature;humidity
59055;BME280;44845;51.444;7.460;2023-03-11T00:01:12;98596.16;;;2.80;76.28
59055;BME280;44845;51.444;7.460;2023-03-11T00:03:38;98609.06;;;2.68;76.44
59055;BME280;44845;51.444;7.460;2023-03-11T00:06:03;98613.44;;;2.80;76.58
59055;BME280;44845;51.444;7.460;2023-03-11T00:08:29;98620.38;;;2.87;76.52
59055;BME280;44845;51.444;7.460;2023-03-11T00:10:57;98623.78;;;2.83;76.46
59055;BME280;44845;51.444;7.460;2023-03-11T00:13:25;98628.06;;;2.76;76.57
59055;BME280;44845;51.444;7.460;2023-03-11T00:15:53;98625.31;;;2.37;76.06
59055;BME280;44845;51.444;7.460;2023-03-11T00:18:21;98637.47;;;2.52;76.83
59055;BME280;44845;51.444;7.460;2023-03-11T00:20:50;98650.47;;;2.65;76.93
59055;BME280;44845;51.444;7.460;2023-03-11T00:23:15;98653.09;;;2.69;76.44
59055;BME280;44845;51.444;7.460;2023-03-11T00:25:43;98658.31;;;2.79;76.79
59055;BME280;44845;51.444;7.460;2023-03-11T00:28:08;98654.75;;;2.61;75.58
59055;BME280;44845;51.444;7.460;2023-03-11T00:30:39;98662.56;;;2.63;75.59
59055;BME280;44845;51.444;7.460;2023-03-11T00:33:05;98668.63;;;2.69;76.34
59055;BME280;44845;51.444;7.460;2023-03-11T00:35:31;98664.25;;;2.61;74.80
59055;BME280;44845;51.444;7.460;2023-03-11T00:38:00;98680.69;;;2.67;76.20
59055;BME280;44845;51.444;7.460;2023-03-11T00:40:28;98681.50;;;2.55;76.25
59055;BME280;44845;51.444;7.460;2023-03-11T00:42:54;98690.13;;;2.61;75.17
59055;BME280;44845;51.444;7.460;2023-03-11T00:45:19;98700.50;;;2.64;75.75
59055;BME280;44845;51.444;7.460;2023-03-11T00:47:45;98699.69;;;2.68;76.18
59055;BME280;44845;51.444;7.460;2023-03-11T00:50:18;98702.25;;;2.65;75.59
59055;BME280;44845;51.444;7.460;2023-03-11T00:52:45;98706.59;;;2.67;74.97
59055;BME280;44845;51.444;7.460;2023-03-11T00:55:13;98712.53;;;2.52;75.86
59055;BME280;44845;51.444;7.460;2023-03-11T00:57:39;98714.19;;;2.44;75.89
59055;BME280;44845;51.444;7.460;2023-03-11T01:00:05;98714.34;;;2.63;76.30
59055;BME280;44845;51.444;7.460;2023-03-11T01:02:35;98715.81;;;2.29;75.08
59055;BME280;44845;51.444;7.460;2023-03-11T01:05:01;98716.81;;;2.47;75.88
59055;BME280;44845;51.444;7.460;2023-03-11T01:07:26;98714.31;;;2.59;76.64
59055;BME280;44845;51.444;7.460;2023-03-11T01:09:51;98723.00;;;2.71;75.91
59055;BME280;44845;51.444;7.460;2023-03-11T01:12:17;98722.13;;;2.67;75.86
59055;BME280;44845;51.444;7.460;2023-03-11T01:14:42;98726.44;;;2.67;76.27
59055;BME280;44845;51.444;7.460;2023-03-11T01:17:08;98737.72;;;2.83;76.18
59055;BME280;44845;51.444;7.460;2023-03-11T01:19:34;98735.16;;;2.85;74.17
59055;BME280;44845;51.444;7.460;2023-03-11T01:21:59;98743.75;;;2.80;75.11
59055;BME280;44845;51.444;7.460;2023-03-11T01:24:24;98735.00;;;2.59;74.69
59055;BME280;44845;51.444;7.460;2023-03-11T01:26:50;98750.59;;;2.69;75.77
59055;BME280;44845;51.444;7.460;2023-03-11T01:29:15;98748.88;;;2.69;75.83
59055;BME280;44845;51.444;7.460;2023-03-11T01:31:40;98754.09;;;2.73;75.39
59055;BME280;44845;51.444;7.460;2023-03-11T01:34:06;98751.41;;;2.63;75.04
59055;BME280;44845;51.444;7.460;2023-03-11T01:36:31;98750.63;;;2.72;74.76
59055;BME280;44845;51.444;7.460;2023-03-11T01:38:56;98753.25;;;2.77;75.12
59055;BME280;44845;51.444;7.460;2023-03-11T01:41:22;98761.00;;;2.78;74.95
59055;BME280;44845;51.444;7.460;2023-03-11T01:43:50;98746.31;;;2.73;75.40
59055;BME280;44845;51.444;7.460;2023-03-11T01:46:22;98752.38;;;2.76;74.41
59055;BME280;44845;51.444;7.460;2023-03-11T01:49:10;98753.28;;;2.81;75.23
59055;BME280;44845;51.444;7.460;2023-03-11T01:51:45;98754.94;;;2.73;74.23
59055;BME280;44845;51.444;7.460;2023-03-11T01:54:20;98756.72;;;2.79;75.55
59055;BME280;44845;51.444;7.460;2023-03-11T01:56:48;98759.31;;;2.84;75.25
59055;BME280;44845;51.444;7.460;2023-03-11T01:59:17;98760.13;;;2.78;74.15
59055;BME280;44845;51.444;7.460;2023-03-11T02:02:13;98766.19;;;2.75;75.40
59055;BME280;44845;51.444;7.460;2023-03-11T02:04:40;98755.78;;;2.69;75.10
59055;BME280;44845;51.444;7.460;2023-03-11T02:07:07;98761.00;;;2.75;74.55
59055;BME280;44845;51.444;7.460;2023-03-11T02:09:33;98764.44;;;2.76;74.58
59055;BME280;44845;51.444;7.460;2023-03-11T02:11:58;98761.00;;;2.75;75.26
59055;BME280;44845;51.444;7.460;2023-03-11T02:14:25;98767.06;;;2.80;75.05
59055;BME280;44845;51.444;7.460;2023-03-11T02:16:54;98767.97;;;2.86;75.28
59055;BME280;44845;51.444;7.460;2023-03-11T02:19:57;98764.50;;;2.84;75.67
59055;BME280;44845;51.444;7.460;2023-03-11T02:22:26;98770.56;;;2.86;74.58
59055;BME280;44845;51.444;7.460;2023-03-11T02:24:56;98766.19;;;2.78;74.88
59055;BME280;44845;51.444;7.460;2023-03-11T02:27:25;98776.56;;;2.78;74.96
59055;BME280;44845;51.444;7.460;2023-03-11T02:29:51;98767.00;;;2.69;74.75
59055;BME280;44845;51.444;7.460;2023-03-11T02:32:19;98769.66;;;2.77;75.49
59055;BME280;44845;51.444;7.460;2023-03-11T02:34:44;98763.59;;;2.75;74.90
59055;BME280;44845;51.444;7.460;2023-03-11T02:37:12;98767.91;;;2.76;74.79
59055;BME280;44845;51.444;7.460;2023-03-11T02:42:22;98772.25;;;2.79;75.63
59055;BME280;44845;51.444;7.460;2023-03-11T02:44:56;98770.56;;;2.84;75.40
59055;BME280;44845;51.444;7.460;2023-03-11T02:47:23;98781.75;;;2.81;75.03
59055;BME280;44845;51.444;7.460;2023-03-11T02:49:49;98774.84;;;2.80;75.09
59055;BME280;44845;51.444;7.460;2023-03-11T02:52:16;98776.56;;;2.78;74.99
59055;BME280;44845;51.444;7.460;2023-03-11T02:54:41;98783.41;;;2.73;75.08
59055;BME280;44845;51.444;7.460;2023-03-11T02:57:06;98792.97;;;2.79;74.63
59055;BME280;44845;51.444;7.460;2023-03-11T02:59:32;98786.91;;;2.78;75.29
59055;BME280;44845;51.444;7.460;2023-03-11T03:01:58;98792.06;;;2.72;74.90
59055;BME280;44845;51.444;7.460;2023-03-11T03:04:23;98805.88;;;2.74;74.85
59055;BME280;44845;51.444;7.460;2023-03-11T03:06:48;98802.44;;;2.75;75.30
59055;BME280;44845;51.444;7.460;2023-03-11T03:09:14;98794.63;;;2.69;74.60
59055;BME280;44845;51.444;7.460;2023-03-11T03:11:39;98801.47;;;2.62;74.77
59055;BME280;44845;51.444;7.460;2023-03-11T03:14:04;98802.41;;;2.72;74.89
59055;BME280;44845;51.444;7.460;2023-03-11T03:16:30;98808.47;;;2.73;75.11
59055;BME280;44845;51.444;7.460;2023-03-11T03:18:55;98816.19;;;2.68;74.61
59055;BME280;44845;51.444;7.460;2023-03-11T03:21:20;98815.34;;;2.70;74.88
59055;BME280;44845;51.444;7.460;2023-03-11T03:23:46;98819.66;;;2.70;75.29
59055;BME280;44845;51.444;7.460;2023-03-11T03:26:12;98814.50;;;2.70;74.64
59055;BME280;44845;51.444;7.460;2023-03-11T03:28:38;98819.66;;;2.70;75.29
59055;BME280;44845;51.444;7.460;2023-03-11T03:31:05;98827.44;;;2.70;74.96
59055;BME280;44845;51.444;7.460;2023-03-11T03:33:31;98823.94;;;2.65;74.09
59055;BME280;44845;51.444;7.460;2023-03-11T03:35:56;98819.66;;;2.70;74.01
59055;BME280;44845;51.444;7.460;2023-03-11T03:38:21;98831.78;;;2.73;75.14
59055;BME280;44845;51.444;7.460;2023-03-11T03:40:47;98823.13;;;2.72;74.96
59055;BME280;44845;51.444;7.460;2023-03-11T03:43:12;98824.84;;;2.73;75.27
59055;BME280;44845;51.444;7.460;2023-03-11T03:45:38;98831.75;;;2.68;74.81
59055;BME280;44845;51.444;7.460;2023-03-11T03:48:04;98836.91;;;2.71;74.70
59055;BME280;44845;51.444;7.460;2023-03-11T03:50:30;98834.25;;;2.63;73.99
59055;BME280;44845;51.444;7.460;2023-03-11T03:52:55;98830.84;;;2.64;75.13
59055;BME280;44845;51.444;7.460;2023-03-11T03:55:20;98840.31;;;2.64;75.55
59055;BME280;44845;51.444;7.460;2023-03-11T03:57:46;98843.75;;;2.59;74.10
59055;BME280;44845;51.444;7.460;2023-03-11T04:00:11;98852.38;;;2.62;74.67
59055;BME280;44845;51.444;7.460;2023-03-11T04:02:37;98856.75;;;2.69;74.35
59055;BME280;44845;51.444;7.460;2023-03-11T04:05:02;98856.75;;;2.70;73.68
59055;BME280;44845;51.444;7.460;2023-03-11T04:07:28;98862.81;;;2.68;73.75
59055;BME280;44845;51.444;7.460;2023-03-11T04:09:53;98861.09;;;2.70;74.60
59055;BME280;44845;51.444;7.460;2023-03-11T04:12:18;98855.88;;;2.67;74.18
59055;BME280;44845;51.444;7.460;2023-03-11T04:14:44;98862.81;;;2.71;74.69
59055;BME280;44845;51.444;7.460;2023-03-11T04:17:11;98870.53;;;2.66;74.64
59055;BME280;44845;51.444;7.460;2023-03-11T04:19:37;98867.91;;;2.62;74.48
59055;BME280;44845;51.444;7.460;2023-03-11T04:22:02;98878.34;;;2.68;74.57
59055;BME280;44845;51.444;7.460;2023-03-11T04:24:27;98875.75;;;2.69;74.32
59055;BME280;44845;51.444;7.460;2023-03-11T04:26:53;98876.59;;;2.67;74.55
59055;BME280;44845;51.444;7.460;2023-03-11T04:29:18;98863.66;;;2.67;75.28
59055;BME280;44845;51.444;7.460;2023-03-11T04:31:43;98873.16;;;2.68;75.03
59055;BME280;44845;51.444;7.460;2023-03-11T04:34:09;98878.34;;;2.68;74.77
59055;BME280;44845;51.444;7.460;2023-03-11T04:36:34;98875.69;;;2.62;74.72
59055;BME280;44845;51.444;7.460;2023-03-11T04:38:59;98884.16;;;2.43;74.44
59055;BME280;44845;51.444;7.460;2023-03-11T04:41:25;98883.44;;;2.62;75.15
59055;BME280;44845;51.444;7.460;2023-03-11T04:43:50;98892.06;;;2.61;75.07
59055;BME280;44845;51.444;7.460;2023-03-11T04:46:15;98897.28;;;2.62;74.77
59055;BME280;44845;51.444;7.460;2023-03-11T04:48:41;98896.41;;;2.62;75.02
59055;BME280;44845;51.444;7.460;2023-03-11T04:51:07;98905.06;;;2.65;74.51
59055;BME280;44845;51.444;7.460;2023-03-11T04:53:32;98905.88;;;2.59;74.66
59055;BME280;44845;51.444;7.460;2023-03-11T04:55:58;98905.00;;;2.61;74.38
59055;BME280;44845;51.444;7.460;2023-03-11T04:58:23;98918.81;;;2.58;74.49
59055;BME280;44845;51.444;7.460;2023-03-11T05:00:49;98910.09;;;2.48;74.18
59055;BME280;44845;51.444;7.460;2023-03-11T05:03:14;98916.16;;;2.52;73.91
59055;BME280;44845;51.444;7.460;2023-03-11T05:05:39;98920.50;;;2.54;73.96
59055;BME280;44845;51.444;7.460;2023-03-11T05:08:05;98928.28;;;2.57;74.27
59055;BME280;44845;51.444;7.460;2023-03-11T05:10:30;98929.09;;;2.53;74.37
59055;BME280;44845;51.444;7.460;2023-03-11T05:12:56;98919.56;;;2.49;74.60
59055;BME280;44845;51.444;7.460;2023-03-11T05:15:21;98923.91;;;2.52;74.45
59055;BME280;44845;51.444;7.460;2023-03-11T05:17:47;98924.72;;;2.46;74.69
59055;BME280;44845;51.444;7.460;2023-03-11T05:20:13;98929.94;;;2.49;74.67
59055;BME280;44845;51.444;7.460;2023-03-11T05:22:38;98923.03;;;2.48;74.66
59055;BME280;44845;51.444;7.460;2023-03-11T05:25:04;98930.84;;;2.54;74.11
59055;BME280;44845;51.444;7.460;2023-03-11T05:27:30;98930.78;;;2.48;73.54
59055;BME280;44845;51.444;7.460;2023-03-11T05:29:55;98941.94;;;2.41;74.80
59055;BME280;44845;51.444;7.460;2023-03-11T05:32:21;98948.91;;;2.48;74.46
59055;BME280;44845;51.444;7.460;2023-03-11T05:34:46;98945.41;;;2.46;74.09
59055;BME280;44845;51.444;7.460;2023-03-11T05:37:12;98958.34;;;2.44;74.18
59055;BME280;44845;51.444;7.460;2023-03-11T05:39:38;98952.31;;;2.44;74.36
59055;BME280;44845;51.444;7.460;2023-03-11T05:42:04;98956.69;;;2.48;74.00
59055;BME280;44845;51.444;7.460;2023-03-11T05:44:30;98950.59;;;2.46;74.11
59055;BME280;44845;51.444;7.460;2023-03-11T05:46:56;98949.72;;;2.42;73.97
59055;BME280;44845;51.444;7.460;2023-03-11T05:49:21;98954.06;;;2.45;74.50
59055;BME280;44845;51.444;7.460;2023-03-11T05:51:48;98953.25;;;2.51;74.90
59055;BME280;44845;51.444;7.460;2023-03-11T05:54:13;98965.28;;;2.45;74.27
59055;BME280;44845;51.444;7.460;2023-03-11T05:56:40;98961.84;;;2.48;74.82
59055;BME280;44845;51.444;7.460;2023-03-11T05:59:05;98969.63;;;2.48;74.54
59055;BME280;44845;51.444;7.460;2023-03-11T06:01:31;98965.28;;;2.47;74.30
59055;BME280;44845;51.444;7.460;2023-03-11T06:03:56;98974.81;;;2.48;74.19
59055;BME280;44845;51.444;7.460;2023-03-11T06:06:21;98985.94;;;2.44;74.22
59055;BME280;44845;51.444;7.460;2023-03-11T06:08:48;98977.34;;;2.45;73.80
59055;BME280;44845;51.444;7.460;2023-03-11T06:11:14;98979.09;;;2.47;74.28
59055;BME280;44845;51.444;7.460;2023-03-11T06:13:40;98981.63;;;2.43;73.42
59055;BME280;44845;51.444;7.460;2023-03-11T06:16:06;98973.00;;;2.44;72.91
59055;BME280;44845;51.444;7.460;2023-03-11T06:18:31;98975.59;;;2.41;73.74
59055;BME280;44845;51.444;7.460;2023-03-11T06:20:57;98981.59;;;2.41;73.68
59055;BME280;44845;51.444;7.460;2023-03-11T06:23:24;98975.53;;;2.39;73.10
59055;BME280;44845;51.444;7.460;2023-03-11T06:25:59;98978.13;;;2.38;73.62
59055;BME280;44845;51.444;7.460;2023-03-11T06:28:25;98980.69;;;2.36;74.43
59055;BME280;44845;51.444;7.460;2023-03-11T06:30:51;98982.47;;;2.40;73.37
59055;BME280;44845;51.444;7.460;2023-03-11T06:33:16;98986.66;;;2.30;73.50
59055;BME280;44845;51.444;7.460;2023-03-11T06:35:42;98990.94;;;2.27;73.12
59055;BME280;44845;51.444;7.460;2023-03-11T06:38:07;98989.31;;;2.33;72.83
59055;BME280;44845;51.444;7.460;2023-03-11T06:40:32;98990.19;;;2.35;73.66
59055;BME280;44845;51.444;7.460;2023-03-11T06:42:58;99003.91;;;2.31;73.49
59055;BME280;44845;51.444;7.460;2023-03-11T06:45:23;99007.31;;;2.27;72.66
59055;BME280;44845;51.444;7.460;2023-03-11T06:47:49;99017.78;;;2.33;73.56
59055;BME280;44845;51.444;7.460;2023-03-11T06:50:14;99021.16;;;2.29;73.95
59055;BME280;44845;51.444;7.460;2023-03-11T06:52:40;99020.22;;;2.24;73.34
59055;BME280;44845;51.444;7.460;2023-03-11T06:55:06;99029.78;;;2.28;71.93
59055;BME280;44845;51.444;7.460;2023-03-11T06:57:32;99024.63;;;2.31;72.08
59055;BME280;44845;51.444;7.460;2023-03-11T06:59:57;99035.00;;;2.33;72.60
59055;BME280;44845;51.444;7.460;2023-03-11T07:02:23;99046.13;;;2.27;72.78
59055;BME280;44845;51.444;7.460;2023-03-11T07:04:48;99041.13;;;2.40;73.46
59055;BME280;44845;51.444;7.460;2023-03-11T07:07:14;99044.66;;;2.45;72.69
59055;BME280;44845;51.444;7.460;2023-03-11T07:09:39;99057.59;;;2.46;73.60
59055;BME280;44845;51.444;7.460;2023-03-11T07:12:04;99053.34;;;2.50;71.51
59055;BME280;44845;51.444;7.460;2023-03-11T07:14:30;99059.31;;;2.46;72.52
59055;BME280;44845;51.444;7.460;2023-03-11T07:16:55;99057.69;;;2.53;72.56
59055;BME280;44845;51.444;7.460;2023-03-11T07:19:21;99061.00;;;2.41;72.13
59055;BME280;44845;51.444;7.460;2023-03-11T07:21:46;99067.00;;;2.41;72.24
59055;BME280;44845;51.444;7.460;2023-03-11T07:24:12;99074.88;;;2.49;73.31
59055;BME280;44845;51.444;7.460;2023-03-11T07:26:38;99073.13;;;2.45;72.75
59055;BME280;44845;51.444;7.460;2023-03-11T07:29:04;99084.41;;;2.50;72.29
59055;BME280;44845;51.444;7.460;2023-03-11T07:31:32;99089.56;;;2.50;72.56
59055;BME280;44845;51.444;7.460;2023-03-11T07:33:59;99099.06;;;2.48;72.29
59055;BME280;44845;51.444;7.460;2023-03-11T07:36:27;99106.88;;;2.53;72.22
59055;BME280;44845;51.444;7.460;2023-03-11T07:39:00;99101.72;;;2.56;73.15
59055;BME280;44845;51.444;7.460;2023-03-11T07:41:29;99091.41;;;2.59;72.89
59055;BME280;44845;51.444;7.460;2023-03-11T07:43:57;99099.16;;;2.57;72.23
59055;BME280;44845;51.444;7.460;2023-03-11T07:46:24;99107.69;;;2.50;72.10
59055;BME280;44845;51.444;7.460;2023-03-11T07:48:50;99105.06;;;2.48;72.18
59055;BME280;44845;51.444;7.460;2023-03-11T07:51:27;99114.56;;;2.48;71.87
59055;BME280;44845;51.444;7.460;2023-03-11T07:53:54;99130.13;;;2.51;72.33
59055;BME280;44845;51.444;7.460;2023-03-11T07:56:21;99137.94;;;2.53;72.98
59055;BME280;44845;51.444;7.460;2023-03-11T07:58:47;99137.00;;;2.49;70.85
59055;BME280;44845;51.444;7.460;2023-03-11T08:01:18;99131.06;;;2.55;71.08
59055;BME280;44845;51.444;7.460;2023-03-11T08:03:45;99138.78;;;2.53;72.06
59055;BME280;44845;51.444;7.460;2023-03-11T08:06:12;99140.47;;;2.51;73.24
59055;BME280;44845;51.444;7.460;2023-03-11T08:08:38;99148.25;;;2.50;71.14
59055;BME280;44845;51.444;7.460;2023-03-11T08:11:03;99148.19;;;2.46;69.77
59055;BME280;44845;51.444;7.460;2023-03-11T08:13:29;99149.94;;;2.47;71.10
59055;BME280;44845;51.444;7.460;2023-03-11T08:15:54;99148.25;;;2.50;72.65
59055;BME280;44845;51.444;7.460;2023-03-11T08:18:19;99148.06;;;3.06;82.08
59055;BME280;44845;51.444;7.460;2023-03-11T08:20:45;99149.59;;;3.72;82.75
59055;BME280;44845;51.444;7.460;2023-03-11T08:23:10;99152.19;;;3.70;68.93
59055;BME280;44845;51.444;7.460;2023-03-11T08:25:39;99158.97;;;3.56;69.58
59055;BME280;44845;51.444;7.460;2023-03-11T08:28:06;99166.56;;;3.40;70.77
59055;BME280;44845;51.444;7.460;2023-03-11T08:30:32;99162.09;;;3.23;69.98
59055;BME280;44845;51.444;7.460;2023-03-11T08:32:58;99167.97;;;3.10;70.98
59055;BME280;44845;51.444;7.460;2023-03-11T08:35:24;99163.34;;;2.85;68.35
59055;BME280;44845;51.444;7.460;2023-03-11T08:37:50;99168.59;;;2.88;69.92
59055;BME280;44845;51.444;7.460;2023-03-11T08:40:16;99170.28;;;2.85;71.19
59055;BME280;44845;51.444;7.460;2023-03-11T08:42:41;99168.63;;;2.90;71.25
59055;BME280;44845;51.444;7.460;2023-03-11T08:45:08;99172.00;;;2.86;70.90
59055;BME280;44845;51.444;7.460;2023-03-11T08:47:34;99170.22;;;2.81;68.33
59055;BME280;44845;51.444;7.460;2023-03-11T08:50:00;99171.13;;;2.84;70.13
59055;BME280;44845;51.444;7.460;2023-03-11T08:52:26;99177.22;;;2.87;71.57
59055;BME280;44845;51.444;7.460;2023-03-11T08:54:51;99170.34;;;2.89;70.75
59055;BME280;44845;51.444;7.460;2023-03-11T08:57:16;99170.34;;;2.91;71.08
59055;BME280;44845;51.444;7.460;2023-03-11T08:59:42;99168.56;;;2.87;70.55
59055;BME280;44845;51.444;7.460;2023-03-11T09:02:09;99181.59;;;2.91;71.20
59055;BME280;44845;51.444;7.460;2023-03-11T09:04:34;99172.94;;;2.89;71.34
59055;BME280;44845;51.444;7.460;2023-03-11T09:07:00;99182.41;;;2.90;71.66
59055;BME280;44845;51.444;7.460;2023-03-11T09:09:25;99175.19;;;2.66;65.17
59055;BME280;44845;51.444;7.460;2023-03-11T09:11:51;99177.94;;;2.78;64.18
59055;BME280;44845;51.444;7.460;2023-03-11T09:14:16;99178.13;;;2.92;68.32
59055;BME280;44845;51.444;7.460;2023-03-11T09:16:41;99175.19;;;2.66;63.75
59055;BME280;44845;51.444;7.460;2023-03-11T09:19:07;99174.94;;;2.47;62.21
59055;BME280;44845;51.444;7.460;2023-03-11T09:21:36;99173.59;;;2.74;65.09
59055;BME280;44845;51.444;7.460;2023-03-11T09:24:02;99183.28;;;2.91;65.88
59055;BME280;44845;51.444;7.460;2023-03-11T09:26:29;99180.91;;;3.10;67.55
59055;BME280;44845;51.444;7.460;2023-03-11T09:28:54;99194.00;;;3.19;67.95
59055;BME280;44845;51.444;7.460;2023-03-11T09:31:20;99179.97;;;3.03;61.13
59055;BME280;44845;51.444;7.460;2023-03-11T09:33:46;99187.69;;;2.98;60.44
59055;BME280;44845;51.444;7.460;2023-03-11T09:36:13;99186.19;;;3.16;60.66
59055;BME280;44845;51.444;7.460;2023-03-11T09:38:40;99193.03;;;3.11;59.55
59055;BME280;44845;51.444;7.460;2023-03-11T09:51:55;99203.09;;;3.60;66.65
59055;BME280;44845;51.444;7.460;2023-03-11T09:54:22;99203.09;;;3.60;65.35
59055;BME280;44845;51.444;7.460;2023-03-11T09:56:48;99208.34;;;3.68;64.12
59055;BME280;44845;51.444;7.460;2023-03-11T09:59:17;99206.34;;;3.41;56.94
59055;BME280;44845;51.444;7.460;2023-03-11T10:01:48;99217.47;;;3.32;57.68
59055;BME280;44845;51.444;7.460;2023-03-11T10:06:47;99211.38;;;3.28;57.18
59055;BME280;44845;51.444;7.460;2023-03-11T10:12:09;99212.44;;;3.47;61.06
59055;BME280;44845;51.444;7.460;2023-03-11T10:22:53;99216.97;;;3.66;62.76
59055;BME280;44845;51.444;7.460;2023-03-11T10:25:24;99222.28;;;3.78;63.56
59055;BME280;44845;51.444;7.460;2023-03-11T10:28:00;99219.66;;;3.77;56.68
59055;BME280;44845;51.444;7.460;2023-03-11T10:30:44;99214.59;;;3.89;61.17
59055;BME280;44845;51.444;7.460;2023-03-11T10:35:44;99221.56;;;3.97;63.90
59055;BME280;44845;51.444;7.460;2023-03-11T10:38:29;99222.41;;;3.92;62.67
59055;BME280;44845;51.444;7.460;2023-03-11T10:40:59;99226.66;;;3.82;60.64
59055;BME280;44845;51.444;7.460;2023-03-11T10:43:31;99229.25;;;3.84;59.40
59055;BME280;44845;51.444;7.460;2023-03-11T10:45:59;99221.75;;;3.26;52.00
59055;BME280;44845;51.444;7.460;2023-03-11T10:48:27;99230.66;;;3.51;55.08
59055;BME280;44845;51.444;7.460;2023-03-11T10:51:15;99223.13;;;3.76;59.07
59055;BME280;44845;51.444;7.460;2023-03-11T10:53:53;99226.66;;;3.84;63.51
59055;BME280;44845;51.444;7.460;2023-03-11T10:56:39;99234.50;;;3.93;67.24
59055;BME280;44845;51.444;7.460;2023-03-11T10:59:21;99219.91;;;4.02;65.05
59055;BME280;44845;51.444;7.460;2023-03-11T11:04:35;99230.38;;;4.13;60.48
59055;BME280;44845;51.444;7.460;2023-03-11T11:07:28;99236.44;;;4.16;65.52
59055;BME280;44845;51.444;7.460;2023-03-11T11:12:57;99254.66;;;4.20;64.62
59055;BME280;44845;51.444;7.460;2023-03-11T11:15:33;99247.44;;;3.87;59.52
59055;BME280;44845;51.444;7.460;2023-03-11T11:18:01;99244.81;;;3.84;54.61
59055;BME280;44845;51.444;7.460;2023-03-11T11:20:28;99240.28;;;3.64;54.15
59055;BME280;44845;51.444;7.460;2023-03-11T11:22:56;99244.63;;;3.65;57.05
59055;BME280;44845;51.444;7.460;2023-03-11T11:25:31;99249.19;;;3.88;63.57
59055;BME280;44845;51.444;7.460;2023-03-11T11:28:23;99251.69;;;3.80;59.28
59055;BME280;44845;51.444;7.460;2023-03-11T11:30:55;99239.69;;;3.90;62.25
59055;BME280;44845;51.444;7.460;2023-03-11T11:33:30;99235.31;;;3.86;55.71
59055;BME280;44845;51.444;7.460;2023-03-11T11:35:59;99232.00;;;4.00;63.68
59055;BME280;44845;51.444;7.460;2023-03-11T11:38:26;99229.41;;;4.01;57.64
59055;BME280;44845;51.444;7.460;2023-03-11T11:40:54;99225.13;;;4.07;56.22
59055;BME280;44845;51.444;7.460;2023-03-11T11:43:48;99221.56;;;3.95;54.74
59055;BME280;44845;51.444;7.460;2023-03-11T11:46:32;99223.41;;;4.07;51.64
59055;BME280;44845;51.444;7.460;2023-03-11T11:49:19;99218.28;;;4.18;62.50
59055;BME280;44845;51.444;7.460;2023-03-11T11:52:15;99219.16;;;4.17;61.56
59055;BME280;44845;51.444;7.460;2023-03-11T11:54:48;99220.97;;;4.29;62.80
59055;BME280;44845;51.444;7.460;2023-03-11T11:57:16;99220.13;;;4.30;54.31
59055;BME280;44845;51.444;7.460;2023-03-11T11:59:43;99211.53;;;4.37;52.63
59055;BME280;44845;51.444;7.460;2023-03-11T12:04:50;99215.03;;;4.47;58.84
59055;BME280;44845;51.444;7.460;2023-03-11T12:12:55;99215.81;;;4.35;54.61
59055;BME280;44845;51.444;7.460;2023-03-11T12:15:37;99215.94;;;4.53;56.19
59055;BME280;44845;51.444;7.460;2023-03-11T12:18:11;99221.06;;;4.43;57.52
59055;BME280;44845;51.444;7.460;2023-03-11T12:20:47;99215.09;;;4.54;54.07
59055;BME280;44845;51.444;7.460;2023-03-11T12:25:59;99222.13;;;4.69;57.55
59055;BME280;44845;51.444;7.460;2023-03-11T12:28:45;99220.41;;;4.71;58.69
59055;BME280;44845;51.444;7.460;2023-03-11T12:31:13;99227.31;;;4.72;59.71
59055;BME280;44845;51.444;7.460;2023-03-11T12:33:44;99231.66;;;4.73;61.47
59055;BME280;44845;51.444;7.460;2023-03-11T12:36:20;99226.47;;;4.71;59.66
59055;BME280;44845;51.444;7.460;2023-03-11T12:38:48;99228.22;;;4.74;62.54
59055;BME280;44845;51.444;7.460;2023-03-11T12:50:58;99237.81;;;4.92;62.84
59055;BME280;44845;51.444;7.460;2023-03-11T12:53:47;99234.22;;;4.70;50.78
59055;BME280;44845;51.444;7.460;2023-03-11T13:01:31;99239.56;;;4.89;61.59
59055;BME280;44845;51.444;7.460;2023-03-11T13:07:25;99234.31;;;4.82;62.03
59055;BME280;44845;51.444;7.460;2023-03-11T13:10:11;99235.13;;;4.75;59.84
59055;BME280;44845;51.444;7.460;2023-03-11T13:12:48;99230.81;;;4.74;65.10
59055;BME280;44845;51.444;7.460;2023-03-11T13:18:11;99238.63;;;4.79;60.29
59055;BME280;44845;51.444;7.460;2023-03-11T13:25:39;99238.66;;;4.85;61.03
59055;BME280;44845;51.444;7.460;2023-03-11T13:28:30;99243.88;;;4.88;63.92
59055;BME280;44845;51.444;7.460;2023-03-11T13:31:12;99235.25;;;4.94;63.19
59055;BME280;44845;51.444;7.460;2023-03-11T13:33:47;99236.09;;;4.91;64.57
59055;BME280;44845;51.444;7.460;2023-03-11T13:36:31;99236.94;;;4.87;64.36
59055;BME280;44845;51.444;7.460;2023-03-11T13:41:48;99231.72;;;4.82;61.66
59055;BME280;44845;51.444;7.460;2023-03-11T13:44:23;99240.41;;;4.88;61.68
59055;BME280;44845;51.444;7.460;2023-03-11T13:47:08;99234.34;;;4.89;61.21
59055;BME280;44845;51.444;7.460;2023-03-11T13:50:02;99227.47;;;4.94;59.23
59055;BME280;44845;51.444;7.460;2023-03-11T13:52:32;99223.97;;;4.89;60.80
59055;BME280;44845;51.444;7.460;2023-03-11T13:55:19;99234.31;;;4.82;62.57
59055;BME280;44845;51.444;7.460;2023-03-11T13:57:53;99228.25;;;4.80;64.33
59055;BME280;44845;51.444;7.460;2023-03-11T14:00:21;99230.00;;;4.81;62.84
59055;BME280;44845;51.444;7.460;2023-03-11T14:02:52;99229.97;;;4.80;63.95
59055;BME280;44845;51.444;7.460;2023-03-11T14:05:29;99227.28;;;4.66;58.41
59055;BME280;44845;51.444;7.460;2023-03-11T14:08:17;99232.47;;;4.66;57.53
59055;BME280;44845;51.444;7.460;2023-03-11T14:11:01;99237.72;;;4.75;59.35
59055;BME280;44845;51.444;7.460;2023-03-11T14:13:38;99236.03;;;4.80;61.40
59055;BME280;44845;51.444;7.460;2023-03-11T14:16:07;99236.91;;;4.81;61.39
59055;BME280;44845;51.444;7.460;2023-03-11T14:18:41;99235.16;;;4.80;63.75
59055;BME280;44845;51.444;7.460;2023-03-11T14:21:25;99238.59;;;4.77;64.00
59055;BME280;44845;51.444;7.460;2023-03-11T14:23:52;99236.00;;;4.74;62.90
59055;BME280;44845;51.444;7.460;2023-03-11T14:26:30;99229.94;;;4.75;60.31
59055;BME280;44845;51.444;7.460;2023-03-11T14:28:58;99234.28;;;4.76;62.07
59055;BME280;44845;51.444;7.460;2023-03-11T14:31:33;99227.31;;;4.69;59.89
59055;BME280;44845;51.444;7.460;2023-03-11T14:34:11;99238.63;;;4.82;58.87